Anta, Peru
Current Conditions -  °F | °C
As of 7:00 AM on Monday 26 Jan 2015 (Local Time) from SPRU Reporting Station
Overcast Overcast  
Wind Chill: 66°   Ceiling: 13000
Heat Index: 66°   Visibility: 6mi
Dew Point: 64°   Wind: 5mph
Humidity: 94%   Direction: 90°E
Pressure: 29.83"   Gusts: NA
Location:  9.35°S, 77.6°W
Report Text: SPRU 261200Z 09004KT 9999 OVC130 19/18 Q1010 RMK PP000
Loading
Personal Weather Stations






























Interactive Weather Map New forecast layout! Learn more

10-Day Weather Forecast

Advertisements
Track Severe Weather on mobile